Time;durP1;ratioP1;P1;durP2;ratioP2;P2;SDS_P1;SDS_P2;PMS_P1;PMS_P2;Temp;Humidity;BMP_temperature;BMP_pressure;BME280_temperature;BME280_humidity;BME280_pressure;Samples;Min_cycle;Max_cycle;Signal;HPM_P1;HPM_P2
2022/10/06 00:00:31;;;;;;;14.40;3.38;;;12.50;99.90;;;;;;5074145;28;20157;-69
2022/10/06 00:02:56;;;;;;;17.55;3.42;;;12.70;99.90;;;;;;5074259;28;20056;-66
2022/10/06 00:05:22;;;;;;;17.75;2.20;;;12.90;99.90;;;;;;5074111;28;20056;-68
2022/10/06 00:07:48;;;;;;;13.73;2.35;;;12.50;99.90;;;;;;5074221;28;20131;-66
2022/10/06 00:10:15;;;;;;;9.02;1.80;;;12.90;99.90;;;;;;5073547;28;20055;-67
2022/10/06 00:12:49;;;;;;;10.45;2.10;;;12.60;99.90;;;;;;5073657;28;20044;-68
2022/10/06 00:15:18;;;;;;;8.18;1.70;;;12.90;99.90;;;;;;5074021;28;20386;-67
2022/10/06 00:17:43;;;;;;;7.45;1.52;;;12.90;99.90;;;;;;5073554;28;20078;-69
2022/10/06 00:20:10;;;;;;;14.20;2.25;;;12.70;99.90;;;;;;5073504;28;20045;-68
2022/10/06 00:22:41;;;;;;;18.42;2.25;;;12.90;99.90;;;;;;5073482;28;20079;-68
2022/10/06 00:25:08;;;;;;;14.27;2.20;;;12.50;99.90;;;;;;5073507;28;20101;-68
2022/10/06 00:27:39;;;;;;;13.77;2.53;;;12.50;99.90;;;;;;5055549;28;20083;-68
2022/10/06 00:30:08;;;;;;;16.63;2.15;;;12.90;99.90;;;;;;5073800;28;20036;-67
2022/10/06 00:32:34;;;;;;;14.32;2.15;;;12.40;99.90;;;;;;5073362;28;20044;-66
2022/10/06 00:35:00;;;;;;;15.90;2.33;;;12.70;99.90;;;;;;5073293;28;20098;-68
2022/10/06 00:37:27;;;;;;;16.88;2.88;;;12.70;99.90;;;;;;5073319;28;20043;-69
2022/10/06 00:39:53;;;;;;;16.30;2.30;;;12.60;99.90;;;;;;5073301;28;20036;-68
2022/10/06 00:42:26;;;;;;;;;;;12.60;99.90;;;;;;5073721;28;20048;-67
2022/10/06 00:44:53;;;;;;;16.90;2.30;;;12.70;99.90;;;;;;5073800;28;19927;-67
2022/10/06 00:47:21;;;;;;;19.30;2.67;;;12.50;99.90;;;;;;5073221;28;20080;-68
2022/10/06 00:49:48;;;;;;;17.95;2.75;;;12.40;99.90;;;;;;5073039;28;20123;-67
2022/10/06 00:52:17;;;;;;;16.42;2.92;;;12.70;99.90;;;;;;5073143;28;20055;-69
2022/10/06 00:54:43;;;;;;;12.20;2.10;;;12.60;99.90;;;;;;5073148;28;20044;-66
2022/10/06 00:57:09;;;;;;;15.52;2.40;;;12.50;99.90;;;;;;5072809;28;20392;-68
2022/10/06 00:59:36;;;;;;;12.23;1.85;;;12.60;99.90;;;;;;5073773;28;20098;-67
2022/10/06 01:02:22;;;;;;;12.18;1.98;;;12.70;99.90;;;;;;5073089;28;20057;-68
2022/10/06 01:04:54;;;;;;;14.95;2.38;;;12.50;99.90;;;;;;5056139;28;20307;-68
2022/10/06 01:07:23;;;;;;;14.90;2.42;;;12.60;99.90;;;;;;5073072;28;20465;-68
2022/10/06 01:09:49;;;;;;;18.63;2.45;;;13.00;99.90;;;;;;5072907;28;20044;-68
2022/10/06 01:12:15;;;;;;;14.75;2.00;;;12.30;99.90;;;;;;5073501;28;20048;-69
2022/10/06 01:14:41;;;;;;;14.05;2.28;;;13.00;99.90;;;;;;5072940;28;20485;-69
2022/10/06 01:17:33;;;;;;;12.60;2.17;;;12.80;99.90;;;;;;5072954;28;20127;-69
2022/10/06 01:20:02;;;;;;;17.95;2.58;;;12.70;99.90;;;;;;5059402;28;20086;-68
2022/10/06 01:22:38;;;;;;;10.52;2.38;;;12.30;99.90;;;;;;5072898;28;20045;-67
2022/10/06 01:25:06;;;;;;;14.60;2.40;;;12.70;99.90;;;;;;5072863;28;20096;-69
2022/10/06 01:27:33;;;;;;;15.13;2.20;;;12.50;99.90;;;;;;5072828;28;20083;-67
2022/10/06 01:30:00;;;;;;;14.00;2.80;;;12.60;99.90;;;;;;5072743;28;20047;-69
2022/10/06 01:32:32;;;;;;;12.40;2.08;;;12.60;99.90;;;;;;5072767;28;20149;-68
2022/10/06 01:34:57;;;;;;;18.67;2.45;;;12.50;99.90;;;;;;5073503;28;20044;-68
2022/10/06 01:37:23;;;;;;;15.15;2.03;;;12.30;99.90;;;;;;5073242;28;20425;-68
2022/10/06 01:39:49;;;;;;;12.27;2.20;;;12.30;99.90;;;;;;5072727;28;20452;-68
2022/10/06 01:42:14;;;;;;;12.77;2.30;;;12.40;99.90;;;;;;5073208;28;20122;-68
2022/10/06 01:44:40;;;;;;;13.40;2.30;;;12.30;99.90;;;;;;5075484;28;20087;-69
2022/10/06 01:47:06;;;;;;;13.48;2.40;;;12.10;99.90;;;;;;5076279;28;20036;-70
2022/10/06 01:49:32;;;;;;;16.35;2.53;;;12.20;99.90;;;;;;5076731;28;20101;-68
2022/10/06 01:51:58;;;;;;;12.10;2.53;;;12.30;99.90;;;;;;5075973;28;20488;-68
2022/10/06 01:54:23;;;;;;;20.17;2.42;;;12.00;99.90;;;;;;5058370;28;20048;-67
2022/10/06 01:56:49;;;;;;;13.38;1.95;;;11.80;99.90;;;;;;5058313;28;20127;-68
2022/10/06 01:59:15;;;;;;;14.90;2.50;;;11.80;99.90;;;;;;5076245;28;20048;-68
2022/10/06 02:01:40;;;;;;;12.77;1.95;;;11.80;99.90;;;;;;5076103;28;20053;-68
2022/10/06 02:04:06;;;;;;;9.57;2.08;;;11.70;99.90;;;;;;5075988;28;20366;-67
2022/10/06 02:06:32;;;;;;;14.52;1.98;;;11.80;99.90;;;;;;5075963;28;20060;-68
2022/10/06 02:08:59;;;;;;;14.02;2.17;;;11.70;99.90;;;;;;5058104;28;20032;-68
2022/10/06 02:11:26;;;;;;;17.70;2.40;;;11.90;99.90;;;;;;5075775;28;20465;-68
2022/10/06 02:13:51;;;;;;;17.05;2.40;;;11.80;99.90;;;;;;5075886;28;20045;-68
2022/10/06 02:16:17;;;;;;;16.70;2.85;;;11.70;99.90;;;;;;5075815;28;20048;-69
2022/10/06 02:18:43;;;;;;;15.52;2.38;;;11.50;99.90;;;;;;5075800;28;20254;-69
2022/10/06 02:21:19;;;;;;;;;;;11.60;99.90;;;;;;5076138;28;20245;-67
2022/10/06 02:23:45;;;;;;;18.65;2.15;;;11.80;99.90;;;;;;5076007;28;19920;-68
2022/10/06 02:26:12;;;;;;;13.65;2.40;;;11.50;99.90;;;;;;5076414;28;20461;-68
2022/10/06 02:28:38;;;;;;;15.85;2.50;;;11.70;99.90;;;;;;5075559;28;20041;-68
2022/10/06 02:31:07;;;;;;;14.55;2.67;;;11.40;99.90;;;;;;5075460;28;20049;-68
2022/10/06 02:33:35;;;;;;;22.85;2.90;;;11.70;99.90;;;;;;5075390;28;20056;-68
2022/10/06 02:36:01;;;;;;;22.65;3.20;;;11.60;99.90;;;;;;5075868;28;20401;-69
2022/10/06 02:38:27;;;;;;;12.23;2.10;;;11.70;99.90;;;;;;5075454;28;20476;-68
2022/10/06 02:40:53;;;;;;;13.30;2.40;;;11.40;99.90;;;;;;5075344;28;20067;-68
2022/10/06 02:43:20;;;;;;;11.95;2.05;;;11.60;99.90;;;;;;5075329;28;20048;-68
2022/10/06 02:45:58;;;;;;;18.98;2.67;;;11.50;99.90;;;;;;5075211;28;20369;-68
2022/10/06 02:48:24;;;;;;;13.68;2.50;;;11.80;99.90;;;;;;5075434;28;20546;-69
2022/10/06 02:50:58;;;;;;;16.58;2.33;;;11.70;99.90;;;;;;5075094;28;20036;-69
2022/10/06 02:53:24;;;;;;;16.15;2.20;;;11.50;99.90;;;;;;5075434;28;20366;-69
2022/10/06 02:55:56;;;;;;;;;;;11.60;99.90;;;;;;5074887;28;20048;-69
2022/10/06 02:58:21;;;;;;;12.93;1.80;;;11.70;99.90;;;;;;5075107;28;20016;-68
2022/10/06 03:00:47;;;;;;;12.35;2.88;;;11.30;99.90;;;;;;5075259;28;20084;-68
2022/10/06 03:03:13;;;;;;;14.55;1.92;;;11.40;99.90;;;;;;5075418;28;20052;-68
2022/10/06 03:05:38;;;;;;;13.25;2.08;;;11.50;99.90;;;;;;5075428;28;20044;-67
2022/10/06 03:08:04;;;;;;;13.13;2.40;;;11.60;99.90;;;;;;5075316;28;20369;-68
2022/10/06 03:10:30;;;;;;;15.55;2.28;;;11.50;99.90;;;;;;5074714;28;20127;-68
2022/10/06 03:12:55;;;;;;;13.23;2.50;;;11.40;99.90;;;;;;5075555;28;20041;-69
2022/10/06 03:15:21;;;;;;;10.35;2.15;;;11.40;99.90;;;;;;5074709;28;20123;-69
2022/10/06 03:17:51;;;;;;;15.25;2.33;;;11.10;99.90;;;;;;5074654;28;20389;-68
2022/10/06 03:20:17;;;;;;;16.02;2.63;;;11.50;99.90;;;;;;5074578;28;20045;-68
2022/10/06 03:22:42;;;;;;;14.32;2.83;;;11.60;99.90;;;;;;5057208;28;20056;-68
2022/10/06 03:25:08;;;;;;;11.40;1.73;;;11.70;99.90;;;;;;5074503;28;20044;-67
2022/10/06 03:27:34;;;;;;;15.63;2.80;;;11.30;99.90;;;;;;5074458;28;20040;-67
2022/10/06 03:30:00;;;;;;;12.50;1.80;;;11.50;99.90;;;;;;5074567;28;20094;-67
2022/10/06 03:32:25;;;;;;;15.13;2.00;;;11.10;99.90;;;;;;5074894;28;20052;-69
2022/10/06 03:34:54;;;;;;;14.40;2.17;;;11.50;99.90;;;;;;5074669;28;20071;-69
2022/10/06 03:37:20;;;;;;;16.55;2.10;;;11.10;99.90;;;;;;5074328;28;20056;-68
2022/10/06 03:39:45;;;;;;;13.13;2.22;;;11.30;99.90;;;;;;5074249;28;20106;-68
2022/10/06 03:42:11;;;;;;;6.45;1.75;;;11.20;99.90;;;;;;5074141;28;20048;-69
2022/10/06 03:44:37;;;;;;;13.50;2.30;;;11.20;99.90;;;;;;5074333;28;20055;-68
2022/10/06 03:47:02;;;;;;;18.08;2.65;;;10.80;99.90;;;;;;5074600;28;20460;-68
2022/10/06 03:49:28;;;;;;;6.68;1.67;;;11.20;99.90;;;;;;5056426;28;20067;-68
2022/10/06 03:51:54;;;;;;;13.32;2.55;;;10.90;99.90;;;;;;5074378;28;20055;-67
2022/10/06 03:54:20;;;;;;;15.40;2.17;;;11.50;99.90;;;;;;5074481;28;20040;-68
2022/10/06 03:56:45;;;;;;;13.45;2.50;;;11.10;99.90;;;;;;5056997;28;20055;-68
2022/10/06 03:59:13;;;;;;;9.80;1.90;;;11.70;99.90;;;;;;5073705;28;20511;-69
2022/10/06 04:01:44;;;;;;;8.68;2.58;;;11.50;99.90;;;;;;5073884;28;20045;-68
2022/10/06 04:04:11;;;;;;;11.88;2.03;;;11.30;99.90;;;;;;5073808;28;20040;-67
2022/10/06 04:06:38;;;;;;;11.48;2.22;;;11.50;99.90;;;;;;5073438;28;20091;-68
2022/10/06 04:09:08;;;;;;;13.98;2.47;;;11.40;99.90;;;;;;5073643;28;20372;-68
2022/10/06 04:11:36;;;;;;;14.57;2.42;;;11.60;99.90;;;;;;5073828;28;20098;-68
2022/10/06 04:14:08;;;;;;;16.27;2.42;;;11.40;99.90;;;;;;5074032;28;20045;-68
2022/10/06 04:16:35;;;;;;;14.23;2.75;;;11.60;99.90;;;;;;5055867;28;20056;-68
2022/10/06 04:19:04;;;;;;;19.05;2.72;;;11.40;99.90;;;;;;5073573;28;20048;-69
2022/10/06 04:21:32;;;;;;;18.08;2.58;;;11.60;99.90;;;;;;5073463;28;20048;-68
2022/10/06 04:23:59;;;;;;;17.73;2.50;;;11.30;99.90;;;;;;5073969;28;20048;-68
2022/10/06 04:26:29;;;;;;;18.90;3.38;;;11.40;99.90;;;;;;5073982;28;20416;-68
2022/10/06 04:28:55;;;;;;;16.55;2.55;;;11.40;99.90;;;;;;5073810;28;20052;-68
2022/10/06 04:31:26;;;;;;;20.73;3.10;;;11.30;99.90;;;;;;5073322;28;20040;-68
2022/10/06 04:33:54;;;;;;;11.40;2.60;;;11.20;99.90;;;;;;5073354;28;20040;-68
2022/10/06 04:36:25;;;;;;;16.63;3.28;;;11.00;99.90;;;;;;5074051;28;20141;-68
2022/10/06 04:38:55;;;;;;;17.95;2.95;;;10.80;99.90;;;;;;5073335;28;20119;-68
2022/10/06 04:41:22;;;;;;;18.25;2.75;;;11.10;99.90;;;;;;5073225;28;20044;-68
2022/10/06 04:43:49;;;;;;;16.48;2.63;;;11.00;99.90;;;;;;5073977;28;20419;-68
2022/10/06 04:46:17;;;;;;;20.73;2.67;;;10.80;99.90;;;;;;5073137;28;20063;-68
2022/10/06 04:48:42;;;;;;;13.15;2.67;;;11.00;99.90;;;;;;5073642;28;20051;-68
2022/10/06 04:51:13;;;;;;;11.60;2.67;;;11.00;99.90;;;;;;5073070;28;20040;-68
2022/10/06 04:53:40;;;;;;;20.92;2.95;;;11.30;99.90;;;;;;5073135;28;20040;-68
2022/10/06 04:56:07;;;;;;;;;;;11.00;99.90;;;;;;5073538;28;20192;-68
2022/10/06 04:58:37;;;;;;;18.48;2.88;;;11.00;99.90;;;;;;5073082;28;19924;-68
2022/10/06 05:01:12;;;;;;;13.75;2.40;;;11.20;99.90;;;;;;5072837;28;20062;-68
2022/10/06 05:03:38;;;;;;;18.83;2.47;;;11.00;99.90;;;;;;5073067;28;20044;-68
2022/10/06 05:06:13;;;;;;;17.10;2.22;;;10.80;99.90;;;;;;5073031;28;20071;-68
2022/10/06 05:08:39;;;;;;;24.50;2.92;;;10.80;99.90;;;;;;5073027;28;20045;-68
2022/10/06 05:11:10;;;;;;;16.75;2.63;;;10.70;99.90;;;;;;5072892;28;20106;-68
2022/10/06 05:13:37;;;;;;;26.48;3.08;;;11.00;99.90;;;;;;5073800;28;20083;-68
2022/10/06 05:16:05;;;;;;;18.75;2.65;;;10.50;99.90;;;;;;5072882;28;20056;-68
2022/10/06 05:18:31;;;;;;;16.42;2.45;;;10.90;99.90;;;;;;5073408;28;20056;-68
2022/10/06 05:20:59;;;;;;;17.38;2.45;;;11.00;99.90;;;;;;5077383;28;20056;-69
2022/10/06 05:23:27;;;;;;;14.85;3.15;;;11.10;99.90;;;;;;5077584;28;20388;-68
2022/10/06 05:25:55;;;;;;;22.10;2.45;;;10.70;99.90;;;;;;5058845;28;20221;-68
2022/10/06 05:28:22;;;;;;;11.98;2.38;;;11.00;99.90;;;;;;5076728;28;20045;-68
2022/10/06 05:31:02;;;;;;;17.67;2.63;;;10.80;99.90;;;;;;5076704;28;20041;-68
2022/10/06 05:33:30;;;;;;;17.52;2.85;;;10.60;99.90;;;;;;5077435;28;20044;-67
2022/10/06 05:35:59;;;;;;;19.35;3.05;;;10.90;99.90;;;;;;5077075;28;20044;-68
2022/10/06 05:38:26;;;;;;;20.10;2.78;;;10.50;99.90;;;;;;5076574;28;20049;-68
2022/10/06 05:41:03;;;;;;;21.95;2.70;;;10.40;99.90;;;;;;5076453;28;20054;-68
2022/10/06 05:43:29;;;;;;;24.98;3.08;;;10.70;99.90;;;;;;5076527;28;20044;-68
2022/10/06 05:45:57;;;;;;;19.35;2.97;;;10.50;99.90;;;;;;5076641;28;20052;-67
2022/10/06 05:48:23;;;;;;;17.38;2.63;;;10.70;99.90;;;;;;5077192;28;20099;-68
2022/10/06 05:51:05;;;;;;;20.65;3.08;;;10.80;99.90;;;;;;5076327;28;20048;-68
2022/10/06 05:53:34;;;;;;;22.70;2.70;;;10.80;99.90;;;;;;5076263;28;20060;-68
2022/10/06 05:56:07;;;;;;;22.80;3.58;;;10.60;99.90;;;;;;5076212;28;20051;-68
2022/10/06 05:58:34;;;;;;;21.92;3.00;;;10.60;99.90;;;;;;5076175;28;20238;-68
2022/10/06 06:01:15;;;;;;;19.25;2.70;;;10.80;99.90;;;;;;5076555;28;20052;-68
2022/10/06 06:03:42;;;;;;;15.20;2.53;;;10.50;99.90;;;;;;5076417;28;20055;-68
2022/10/06 06:06:22;;;;;;;18.38;2.70;;;10.60;99.90;;;;;;5058651;28;20052;-68
2022/10/06 06:08:51;;;;;;;19.67;2.70;;;10.50;99.90;;;;;;5075293;28;20530;-68
2022/10/06 06:11:17;;;;;;;13.55;2.42;;;10.80;99.90;;;;;;5076212;28;20049;-67
2022/10/06 06:13:43;;;;;;;20.13;2.78;;;10.80;99.90;;;;;;5076329;28;20044;-68
2022/10/06 06:16:13;;;;;;;18.58;2.40;;;10.70;99.90;;;;;;5075734;28;20063;-69
2022/10/06 06:18:39;;;;;;;19.70;2.50;;;10.80;99.90;;;;;;5075759;28;20044;-68
2022/10/06 06:21:06;;;;;;;;;;;10.80;99.90;;;;;;5076656;28;20087;-68
2022/10/06 06:23:35;;;;;;;17.50;2.83;;;10.50;99.90;;;;;;5075630;28;19927;-68
2022/10/06 06:26:13;;;;;;;19.63;2.78;;;10.60;99.90;;;;;;5057887;28;20326;-69
2022/10/06 06:28:40;;;;;;;17.70;2.42;;;10.80;99.90;;;;;;5075622;28;20048;-68
2022/10/06 06:31:13;;;;;;;14.45;2.78;;;10.80;99.90;;;;;;5074900;28;20369;-69
2022/10/06 06:33:40;;;;;;;19.15;2.63;;;10.60;99.90;;;;;;5075560;28;20396;-69
2022/10/06 06:36:34;;;;;;;20.45;3.30;;;10.80;99.90;;;;;;5075695;28;20052;-68
2022/10/06 06:39:01;;;;;;;14.98;2.63;;;10.50;99.90;;;;;;5075592;28;20044;-68
2022/10/06 06:41:32;;;;;;;21.55;3.00;;;11.10;99.90;;;;;;5075314;28;20044;-69
2022/10/06 06:43:59;;;;;;;16.60;3.08;;;11.10;99.90;;;;;;5057474;28;20047;-69
2022/10/06 06:46:26;;;;;;;22.58;3.25;;;10.90;99.90;;;;;;5075197;28;20047;-69
2022/10/06 06:48:53;;;;;;;19.50;2.47;;;11.10;99.90;;;;;;5075201;28;20048;-68
2022/10/06 06:51:22;;;;;;;19.15;3.30;;;10.90;99.90;;;;;;5057299;28;20040;-68
2022/10/06 06:53:50;;;;;;;19.77;2.65;;;11.10;99.90;;;;;;5075003;28;20055;-68
2022/10/06 06:56:16;;;;;;;27.92;3.63;;;11.10;99.90;;;;;;5075031;28;20060;-69
2022/10/06 06:58:49;;;;;;;17.73;2.40;;;11.00;99.90;;;;;;5075755;28;20048;-68
2022/10/06 07:01:19;;;;;;;13.15;2.72;;;11.20;99.90;;;;;;5075225;28;20059;-68
2022/10/06 07:03:50;;;;;;;20.38;2.88;;;11.10;99.90;;;;;;5074914;28;20048;-69
2022/10/06 07:06:17;;;;;;;19.45;3.00;;;11.10;99.90;;;;;;5057414;28;20048;-68
2022/10/06 07:08:47;;;;;;;14.23;3.03;;;11.30;99.90;;;;;;5073842;28;20584;-69
2022/10/06 07:11:30;;;;;;;15.70;2.45;;;11.50;99.90;;;;;;5074786;28;20045;-70
2022/10/06 07:14:00;;;;;;;14.85;2.65;;;11.60;99.90;;;;;;5074477;28;20051;-67
2022/10/06 07:25:06;;;;;;;27.52;3.28;;;11.80;99.90;;;;;;5074394;28;20048;-68
2022/10/06 07:27:35;;;;;;;11.90;2.50;;;12.00;99.90;;;;;;5075275;28;20037;-69
2022/10/06 07:30:02;;;;;;;14.48;2.47;;;11.80;99.90;;;;;;5074294;28;20047;-69
2022/10/06 07:32:31;;;;;;;16.67;2.50;;;11.90;99.90;;;;;;5074208;28;20084;-69
2022/10/06 07:35:00;;;;;;;15.65;2.92;;;12.20;99.90;;;;;;5074331;28;20044;-70
2022/10/06 07:37:27;;;;;;;17.90;3.05;;;12.30;99.90;;;;;;5074479;28;20044;-70
2022/10/06 07:39:53;;;;;;;14.65;2.90;;;12.60;99.90;;;;;;5074148;28;20059;-70
2022/10/06 07:42:19;;;;;;;16.23;2.83;;;12.30;99.90;;;;;;5073984;28;20044;-70
2022/10/06 07:47:32;;;;;;;18.08;2.75;;;12.30;99.90;;;;;;5032601;28;19927;-69
2022/10/06 07:49:57;;;;;;;;;;;12.50;99.90;;;;;;5056953;28;20102;-70
2022/10/06 07:52:24;;;;;;;16.60;2.67;;;12.70;99.90;;;;;;5073978;28;19928;-69
2022/10/06 07:54:49;;;;;;;14.38;2.88;;;12.90;99.90;;;;;;5074097;28;20443;-70
2022/10/06 07:57:15;;;;;;;18.75;3.25;;;13.10;99.90;;;;;;5073873;28;20075;-68
2022/10/06 07:59:41;;;;;;;19.33;3.47;;;13.00;99.90;;;;;;5073630;28;20114;-67
2022/10/06 08:02:07;;;;;;;16.83;3.00;;;12.60;99.90;;;;;;5073787;28;20040;-71
2022/10/06 08:04:32;;;;;;;21.30;2.35;;;13.10;99.90;;;;;;5073758;28;20135;-67
2022/10/06 08:06:58;;;;;;;14.98;2.55;;;12.90;99.90;;;;;;5073726;28;20447;-66
2022/10/06 08:09:24;;;;;;;14.48;3.05;;;13.10;99.90;;;;;;5073054;28;20086;-68
2022/10/06 08:11:50;;;;;;;21.60;2.72;;;13.10;99.90;;;;;;5056307;28;20044;-71
2022/10/06 08:14:15;;;;;;;15.98;3.60;;;13.40;99.90;;;;;;5074084;28;20493;-69
2022/10/06 08:16:41;;;;;;;21.58;3.25;;;13.40;99.90;;;;;;5073466;28;20392;-68
2022/10/06 08:19:07;;;;;;;19.48;3.45;;;13.10;99.90;;;;;;5073469;28;20091;-69
2022/10/06 08:21:33;;;;;;;15.95;2.85;;;13.70;99.90;;;;;;5073485;28;20044;-68
2022/10/06 08:24:00;;;;;;;16.50;2.40;;;13.60;99.90;;;;;;5056114;28;20048;-68
2022/10/06 08:26:27;;;;;;;16.00;2.70;;;13.80;99.90;;;;;;5073346;28;20515;-69
2022/10/06 08:28:59;;;;;;;12.18;2.42;;;13.70;99.90;;;;;;5073248;28;20094;-68
2022/10/06 08:31:24;;;;;;;17.27;3.15;;;13.90;99.90;;;;;;5073881;28;20121;-70
2022/10/06 08:33:55;;;;;;;14.32;2.58;;;14.10;99.90;;;;;;5073289;28;20476;-68
2022/10/06 08:36:22;;;;;;;17.08;3.60;;;14.10;99.90;;;;;;5074066;28;20137;-68
2022/10/06 08:38:51;;;;;;;22.00;3.17;;;14.20;99.90;;;;;;5073476;28;20613;-69
2022/10/06 08:41:29;;;;;;;18.95;2.70;;;14.00;99.90;;;;;;5073758;28;20399;-68
2022/10/06 08:44:17;;;;;;;18.15;3.13;;;14.00;99.90;;;;;;5073746;28;20119;-69
2022/10/06 08:46:59;;;;;;;13.75;2.35;;;14.00;99.90;;;;;;5055839;28;20056;-69
2022/10/06 08:49:32;;;;;;;15.95;2.15;;;14.20;99.90;;;;;;5073102;28;20055;-72
2022/10/06 08:52:09;;;;;;;12.48;1.90;;;14.50;99.90;;;;;;5073146;28;20048;-69
2022/10/06 08:54:47;;;;;;;15.60;2.83;;;14.00;99.90;;;;;;5073296;28;20106;-71
2022/10/06 08:57:25;;;;;;;16.50;2.53;;;14.40;99.90;;;;;;5072825;28;20482;-69
2022/10/06 08:59:52;;;;;;;16.50;2.38;;;14.30;99.90;;;;;;5072790;28;20546;-69
2022/10/06 09:02:50;;;;;;;12.30;2.33;;;14.30;99.90;;;;;;5073498;28;20049;-70
2022/10/06 09:05:23;;;;;;;13.88;3.42;;;14.20;99.90;;;;;;5008030;28;20052;-70
2022/10/06 09:08:28;;;;;;;15.90;2.40;;;14.30;99.90;;;;;;5073007;28;20114;-71
2022/10/06 09:11:25;;;;;;;15.65;2.20;;;14.60;99.90;;;;;;5073772;28;20131;-71
2022/10/06 09:14:49;;;;;;;13.80;2.33;;;14.50;99.90;;;;;;5073468;28;20045;-72
2022/10/06 09:17:25;;;;;;;13.70;2.83;;;14.60;99.90;;;;;;5018115;28;20369;-71
2022/10/06 09:20:05;;;;;;;15.95;2.58;;;14.80;99.90;;;;;;5072764;28;20055;-71
2022/10/06 09:22:31;;;;;;;13.95;2.70;;;14.80;99.90;;;;;;5073252;28;20049;-72
2022/10/06 09:25:15;;;;;;;16.52;3.03;;;14.50;99.90;;;;;;5072780;28;20051;-71
2022/10/06 09:27:44;;;;;;;19.73;2.75;;;14.60;99.90;;;;;;5073812;28;20123;-72
2022/10/06 09:30:11;;;;;;;14.77;2.28;;;14.80;99.90;;;;;;5072605;28;20093;-71
2022/10/06 09:32:45;;;;;;;12.88;2.45;;;14.80;99.90;;;;;;5072651;28;20052;-75
2022/10/06 09:35:22;;;;;;;13.57;2.10;;;14.70;99.90;;;;;;5073259;28;20090;-72
2022/10/06 09:37:56;;;;;;;13.98;2.10;;;14.60;99.90;;;;;;5073278;28;20051;-71
2022/10/06 09:40:47;;;;;;;11.73;2.67;;;14.70;99.90;;;;;;5072701;28;20045;-69
2022/10/06 09:43:24;;;;;;;14.07;2.53;;;15.00;99.90;;;;;;5073258;28;20102;-71
2022/10/06 09:45:54;;;;;;;12.27;2.42;;;14.80;99.90;;;;;;5072838;28;20045;-71
2022/10/06 09:48:23;;;;;;;17.58;3.53;;;14.90;99.90;;;;;;5072603;28;20040;-69
2022/10/06 09:51:16;;;;;;;13.60;2.35;;;14.90;99.90;;;;;;5072243;28;20550;-72
2022/10/06 09:53:43;;;;;;;14.90;2.22;;;14.50;99.90;;;;;;5068515;28;20110;-71
2022/10/06 09:56:18;;;;;;;11.38;1.80;;;14.50;99.90;;;;;;5072334;28;20049;-72
2022/10/06 09:58:58;;;;;;;10.10;2.38;;;14.50;99.90;;;;;;5072258;28;20045;-70
2022/10/06 10:01:29;;;;;;;10.85;2.22;;;14.30;99.90;;;;;;5073105;28;20052;-71
2022/10/06 10:04:04;;;;;;;13.57;1.98;;;14.40;99.90;;;;;;5073025;28;20044;-71
2022/10/06 10:06:33;;;;;;;11.35;1.77;;;14.40;99.90;;;;;;5074511;28;20131;-72
2022/10/06 10:09:22;;;;;;;11.20;2.08;;;14.50;99.90;;;;;;5076024;28;20048;-71
2022/10/06 10:12:29;;;;;;;11.43;1.95;;;14.60;99.90;;;;;;5076497;28;20084;-71
2022/10/06 10:15:24;;;;;;;13.30;2.60;;;14.50;99.90;;;;;;5076480;28;20392;-72
2022/10/06 10:17:59;;;;;;;15.20;1.95;;;14.90;99.90;;;;;;5062771;28;20056;-70
2022/10/06 10:20:49;;;;;;;10.57;1.98;;;14.90;99.90;;;;;;5075912;28;20075;-71
2022/10/06 10:23:22;;;;;;;16.90;2.72;;;14.90;99.90;;;;;;5040873;28;20117;-70
2022/10/06 10:26:27;;;;;;;14.95;2.13;;;15.60;99.90;;;;;;5075787;28;20059;-72
2022/10/06 10:29:06;;;;;;;14.77;2.15;;;15.30;99.90;;;;;;5074962;28;20095;-71
2022/10/06 10:31:49;;;;;;;16.95;2.40;;;15.50;99.90;;;;;;5075348;28;20040;-71
2022/10/06 10:34:34;;;;;;;19.13;2.25;;;15.40;99.90;;;;;;5076177;28;20127;-71
2022/10/06 10:37:08;;;;;;;10.75;1.92;;;15.50;99.90;;;;;;5075605;28;20052;-72
2022/10/06 10:40:00;;;;;;;11.35;1.70;;;15.90;99.90;;;;;;5076040;28;20389;-73
2022/10/06 10:42:49;;;;;;;14.18;2.17;;;15.70;99.90;;;;;;5061816;28;20056;-71
2022/10/06 10:45:27;;;;;;;15.80;2.72;;;15.90;99.90;;;;;;5076166;28;20055;-71
2022/10/06 10:47:54;;;;;;;10.55;2.05;;;15.50;99.90;;;;;;5075627;28;20361;-74
2022/10/06 10:50:25;;;;;;;10.65;2.33;;;15.70;99.90;;;;;;5075221;28;20040;-74
2022/10/06 10:52:56;;;;;;;13.55;2.30;;;15.00;99.90;;;;;;5075964;28;20040;-74
2022/10/06 10:55:38;;;;;;;11.45;2.13;;;15.70;99.90;;;;;;5075810;28;20102;-73
2022/10/06 10:58:15;;;;;;;11.93;2.70;;;15.20;99.90;;;;;;5075874;28;20044;-72
2022/10/06 11:00:45;;;;;;;11.18;2.47;;;15.90;99.90;;;;;;5075233;28;20504;-70
2022/10/06 11:03:11;;;;;;;10.02;1.80;;;15.60;99.90;;;;;;5075380;28;20102;-71
2022/10/06 11:06:13;;;;;;;9.35;1.83;;;15.80;99.90;;;;;;5074999;28;20160;-72
2022/10/06 11:08:57;;;;;;;10.05;1.90;;;16.20;99.90;;;;;;5075014;28;20040;-72
2022/10/06 11:11:45;;;;;;;12.95;1.80;;;16.30;99.90;;;;;;5075074;28;20045;-70
2022/10/06 11:14:37;;;;;;;8.95;1.63;;;16.40;99.90;;;;;;5074850;28;20058;-72
2022/10/06 11:17:10;;;;;;;8.90;1.50;;;16.00;99.90;;;;;;5073503;28;20060;-72
2022/10/06 11:19:59;;;;;;;11.27;2.33;;;16.40;99.90;;;;;;5075247;28;20044;-73
2022/10/06 11:23:20;;;;;;;8.05;1.48;;;16.20;99.90;;;;;;5074716;28;20041;-73
2022/10/06 11:25:58;;;;;;;9.40;1.95;;;15.70;99.90;;;;;;4973311;28;20438;-73
2022/10/06 11:28:42;;;;;;;9.40;2.38;;;15.80;99.90;;;;;;4973564;28;20059;-72
2022/10/06 11:31:29;;;;;;;10.07;1.42;;;15.90;99.90;;;;;;5043115;28;20056;-73
2022/10/06 11:33:57;;;;;;;;;;;15.80;99.90;;;;;;5074834;28;20044;-71
2022/10/06 11:36:43;;;;;;;10.23;1.50;;;15.70;99.90;;;;;;5074872;28;19928;-71
2022/10/06 11:39:24;;;;;;;7.90;1.50;;;15.30;99.90;;;;;;5074326;28;20049;-74
2022/10/06 11:42:29;;;;;;;10.07;1.67;;;15.80;99.90;;;;;;5073989;28;20480;-73
2022/10/06 11:45:03;;;;;;;11.63;1.73;;;15.90;99.90;;;;;;5029732;28;20101;-73
2022/10/06 11:47:42;;;;;;;10.10;1.98;;;15.80;99.90;;;;;;5074487;28;20056;-73
2022/10/06 11:50:30;;;;;;;9.95;2.00;;;16.00;99.90;;;;;;5074007;28;20041;-72
2022/10/06 11:52:56;;;;;;;7.40;2.08;;;15.80;99.90;;;;;;5074018;28;20047;-72
2022/10/06 11:55:25;;;;;;;9.95;1.92;;;15.80;99.90;;;;;;5074045;28;20041;-71
2022/10/06 11:58:26;;;;;;;9.57;2.03;;;16.30;99.90;;;;;;5074660;28;20098;-72
2022/10/06 12:00:52;;;;;;;9.90;2.22;;;16.20;99.90;;;;;;4953474;29;20069;-73
2022/10/06 12:03:29;;;;;;;13.77;1.95;;;16.50;99.90;;;;;;5032104;28;20102;-72
2022/10/06 12:05:56;;;;;;;11.55;1.30;;;16.70;99.90;;;;;;5074064;28;20430;-71
2022/10/06 12:08:51;;;;;;;11.15;1.83;;;16.40;99.90;;;;;;5073767;28;20075;-72
2022/10/06 12:11:44;;;;;;;11.90;1.70;;;16.20;99.90;;;;;;5047961;28;20102;-74
2022/10/06 12:14:29;;;;;;;7.78;1.45;;;16.30;99.90;;;;;;5073688;28;20102;-73
2022/10/06 12:17:02;;;;;;;10.27;2.10;;;15.80;99.90;;;;;;5073749;28;20040;-73
2022/10/06 12:19:53;;;;;;;10.20;2.30;;;16.20;99.90;;;;;;5073696;28;20086;-72
2022/10/06 12:22:30;;;;;;;13.07;1.70;;;16.20;99.90;;;;;;5017251;28;20063;-73
2022/10/06 12:25:23;;;;;;;12.57;2.08;;;16.30;99.90;;;;;;5055532;28;20040;-73
2022/10/06 12:28:04;;;;;;;6.80;1.40;;;16.40;99.90;;;;;;5073697;28;20149;-74
2022/10/06 12:30:44;;;;;;;8.30;2.15;;;16.50;99.90;;;;;;5073029;28;20481;-74
2022/10/06 12:33:18;;;;;;;7.38;1.70;;;16.40;99.90;;;;;;5072864;28;20058;-73
2022/10/06 12:35:44;;;;;;;10.73;2.15;;;16.70;99.90;;;;;;5073799;28;20041;-70
2022/10/06 12:38:31;;;;;;;8.82;1.63;;;16.70;99.90;;;;;;5074046;28;20131;-71
2022/10/06 12:40:58;;;;;;;7.72;1.67;;;16.60;99.90;;;;;;5073857;28;20056;-69
2022/10/06 12:43:32;;;;;;;11.40;1.80;;;16.40;99.90;;;;;;5072792;28;20048;-71
2022/10/06 12:46:18;;;;;;;6.78;1.55;;;16.50;99.90;;;;;;5073080;28;20055;-70
2022/10/06 12:49:05;;;;;;;10.32;1.55;;;16.70;99.90;;;;;;5054528;28;20062;-69
2022/10/06 12:51:42;;;;;;;11.45;1.70;;;16.70;99.90;;;;;;5072848;28;20041;-73
2022/10/06 12:54:08;;;;;;;8.18;1.75;;;16.70;99.90;;;;;;5073617;28;20045;-71
2022/10/06 12:56:36;;;;;;;13.88;2.13;;;17.10;99.90;;;;;;5073585;28;20040;-72
2022/10/06 12:59:26;;;;;;;8.40;1.52;;;17.10;99.90;;;;;;5073694;28;20040;-72
2022/10/06 13:02:19;;;;;;;6.32;1.77;;;17.40;99.90;;;;;;5072719;28;20044;-71
2022/10/06 13:04:54;;;;;;;11.10;2.35;;;17.00;99.90;;;;;;5071988;28;20496;-76
2022/10/06 13:07:21;;;;;;;9.02;1.95;;;16.60;99.90;;;;;;5072707;28;20393;-69
2022/10/06 13:09:49;;;;;;;8.30;2.03;;;16.70;99.90;;;;;;5072897;28;20055;-74
2022/10/06 13:12:23;;;;;;;10.20;1.85;;;16.70;99.90;;;;;;5072840;28;20044;-71
2022/10/06 13:15:29;;;;;;;12.45;1.80;;;17.10;99.90;;;;;;5073350;28;20048;-75
2022/10/06 13:17:58;;;;;;;6.95;1.70;;;16.70;99.90;;;;;;5073683;28;20048;-72